createdAt,value
2022-09-04T00:03:42.748Z,100.00
2022-09-04T00:09:03.628Z,100.00
2022-09-04T00:14:10.485Z,100.00
2022-09-04T00:19:21.251Z,100.00
2022-09-04T00:24:30.302Z,100.00
2022-09-04T00:29:42.884Z,100.00
2022-09-04T00:35:08.585Z,100.00
2022-09-04T00:40:21.632Z,100.00
2022-09-04T00:45:35.089Z,100.00
2022-09-04T00:51:01.675Z,100.00
2022-09-04T00:56:30.654Z,100.00
2022-09-04T01:01:33.462Z,100.00
2022-09-04T01:06:51.030Z,100.00
2022-09-04T01:12:07.629Z,100.00
2022-09-04T01:17:19.062Z,100.00
2022-09-04T01:22:33.573Z,100.00
2022-09-04T01:27:50.460Z,100.00
2022-09-04T01:33:02.714Z,100.00
2022-09-04T01:38:16.566Z,100.00
2022-09-04T01:43:23.046Z,100.00
2022-09-04T01:48:36.251Z,100.00
2022-09-04T01:53:43.733Z,100.00
2022-09-04T01:58:56.260Z,100.00
2022-09-04T02:04:08.014Z,100.00
2022-09-04T02:09:24.387Z,100.00
2022-09-04T02:14:37.324Z,100.00
2022-09-04T02:19:56.427Z,100.00
2022-09-04T02:25:06.145Z,100.00
2022-09-04T02:30:13.649Z,100.00
2022-09-04T02:35:24.357Z,100.00
2022-09-04T02:40:33.423Z,100.00
2022-09-04T02:45:45.895Z,100.00
2022-09-04T02:51:15.697Z,100.00
2022-09-04T02:56:31.272Z,100.00
2022-09-04T03:01:49.083Z,100.00
2022-09-04T03:06:57.891Z,100.00
2022-09-04T03:12:05.162Z,100.00
2022-09-04T03:17:17.309Z,100.00
2022-09-04T03:22:29.337Z,100.00
2022-09-04T03:27:33.329Z,100.00
2022-09-04T03:32:45.991Z,100.00
2022-09-04T03:38:02.845Z,100.00
2022-09-04T03:43:26.085Z,100.00
2022-09-04T03:48:59.027Z,100.00
2022-09-04T03:54:18.256Z,100.00
2022-09-04T03:59:40.101Z,100.00
2022-09-04T04:05:24.680Z,100.00
2022-09-04T04:10:35.391Z,100.00
2022-09-04T04:15:52.204Z,100.00
2022-09-04T04:21:04.421Z,100.00
2022-09-04T04:26:11.203Z,100.00
2022-09-04T04:31:21.868Z,100.00
2022-09-04T04:36:35.179Z,100.00
2022-09-04T04:42:07.869Z,100.00
2022-09-04T04:47:23.847Z,100.00
2022-09-04T04:52:41.858Z,100.00
2022-09-04T04:57:58.742Z,100.00
2022-09-04T05:03:08.143Z,100.00
2022-09-04T05:08:24.422Z,100.00
2022-09-04T05:13:37.027Z,100.00
2022-09-04T05:18:49.281Z,100.00
2022-09-04T05:23:59.705Z,100.00
2022-09-04T05:29:07.343Z,100.00
2022-09-04T05:34:17.558Z,100.00
2022-09-04T05:39:30.225Z,100.00
2022-09-04T05:44:58.308Z,100.00
2022-09-04T05:50:18.324Z,100.00
2022-09-04T05:55:49.368Z,100.00
2022-09-04T06:01:02.664Z,100.00
2022-09-04T06:06:10.894Z,100.00
2022-09-04T06:11:40.791Z,100.00
2022-09-04T06:16:58.352Z,100.00
2022-09-04T06:22:20.411Z,100.00
2022-09-04T06:27:41.665Z,100.00
2022-09-04T06:33:06.164Z,100.00
2022-09-04T06:38:27.050Z,100.00
2022-09-04T06:43:40.415Z,100.00
2022-09-04T06:48:56.966Z,100.00
2022-09-04T06:54:11.200Z,100.00
2022-09-04T06:59:35.245Z,100.00
2022-09-04T07:04:52.350Z,100.00
2022-09-04T07:10:01.368Z,100.00
2022-09-04T07:15:39.045Z,100.00
2022-09-04T07:20:53.422Z,100.00
2022-09-04T07:26:07.960Z,100.00
2022-09-04T07:31:20.481Z,100.00
2022-09-04T07:36:33.133Z,100.00
2022-09-04T07:41:45.141Z,100.00
2022-09-04T07:47:00.122Z,100.00
2022-09-04T07:52:14.431Z,100.00
2022-09-04T07:57:42.750Z,100.00
2022-09-04T08:03:18.811Z,100.00
2022-09-04T08:08:39.211Z,100.00
2022-09-04T08:14:01.963Z,100.00
2022-09-04T08:19:16.198Z,100.00
2022-09-04T08:25:12.470Z,100.00
2022-09-04T08:30:21.613Z,100.00
2022-09-04T08:35:29.501Z,100.00
2022-09-04T08:41:12.099Z,100.00
2022-09-04T08:46:49.482Z,100.00
2022-09-04T08:52:44.083Z,100.00
2022-09-04T08:58:19.440Z,100.00
2022-09-04T09:03:48.788Z,100.00
2022-09-04T09:09:36.052Z,100.00
2022-09-04T09:15:19.867Z,100.00
2022-09-04T09:20:39.813Z,100.00
2022-09-04T09:25:50.185Z,100.00
2022-09-04T09:31:31.238Z,100.00
2022-09-04T09:36:47.903Z,100.00
2022-09-04T09:42:18.792Z,100.00
2022-09-04T09:48:08.678Z,100.00
2022-09-04T09:53:47.085Z,100.00
2022-09-04T09:59:03.194Z,97.00
2022-09-04T10:04:37.634Z,95.26
2022-09-04T10:10:00.326Z,90.32
2022-09-04T10:15:45.155Z,88.16
2022-09-04T10:21:20.783Z,84.15
2022-09-04T10:26:42.614Z,84.79
2022-09-04T10:32:04.172Z,82.90
2022-09-04T10:37:25.494Z,79.76
2022-09-04T10:42:41.230Z,81.94
2022-09-04T10:48:17.582Z,80.56
2022-09-04T10:53:44.253Z,77.77
2022-09-04T10:59:26.186Z,73.98
2022-09-04T11:04:48.278Z,72.78
2022-09-04T11:10:35.595Z,71.82
2022-09-04T11:16:09.865Z,73.26
2022-09-04T11:22:00.548Z,69.17
2022-09-04T11:27:49.277Z,69.85
2022-09-04T11:33:18.946Z,68.56
2022-09-04T11:38:45.654Z,65.83
2022-09-04T11:44:06.663Z,66.13
2022-09-04T11:49:40.724Z,62.93
2022-09-04T11:55:13.951Z,59.66
2022-09-04T12:00:19.700Z,55.70
2022-09-04T12:05:40.372Z,55.57
2022-09-04T12:11:00.604Z,53.23
2022-09-04T12:16:42.288Z,49.59
2022-09-04T12:22:26.109Z,48.32
2022-09-04T12:28:03.301Z,48.87
2022-09-04T12:33:33.929Z,48.77
2022-09-04T12:39:14.200Z,48.08
2022-09-04T12:44:27.329Z,43.51
2022-09-04T12:50:00.130Z,45.64
2022-09-04T12:55:11.743Z,49.62
2022-09-04T13:00:17.845Z,46.61
2022-09-04T13:05:36.769Z,45.82
2022-09-04T13:10:55.148Z,46.43
2022-09-04T13:16:08.854Z,49.26
2022-09-04T13:21:26.282Z,50.05
2022-09-04T13:26:46.888Z,48.21
2022-09-04T13:32:06.228Z,45.02
2022-09-04T13:37:22.034Z,45.12
2022-09-04T13:43:04.655Z,48.41
2022-09-04T13:48:14.087Z,48.44
2022-09-04T13:53:22.414Z,49.16
2022-09-04T13:58:30.902Z,49.99
2022-09-04T14:03:40.274Z,51.24
2022-09-04T14:08:45.710Z,51.93
2022-09-04T14:14:21.082Z,53.48
2022-09-04T14:19:43.373Z,54.88
2022-09-04T14:24:56.717Z,54.51
2022-09-04T14:30:07.021Z,52.72
2022-09-04T14:35:18.030Z,54.57
2022-09-04T14:40:25.810Z,55.25
2022-09-04T14:45:55.502Z,53.67
2022-09-04T14:51:13.442Z,52.01
2022-09-04T14:56:24.216Z,51.50
2022-09-04T15:01:28.080Z,52.01
2022-09-04T15:06:54.662Z,52.77
2022-09-04T15:12:26.609Z,53.78
2022-09-04T15:17:31.306Z,53.56
2022-09-04T15:22:42.046Z,52.58
2022-09-04T15:27:50.656Z,53.75
2022-09-04T15:33:05.981Z,52.43
2022-09-04T15:38:20.521Z,54.16
2022-09-04T15:43:27.767Z,55.01
2022-09-04T15:48:43.836Z,52.92
2022-09-04T15:53:54.751Z,51.97
2022-09-04T15:59:03.343Z,52.06
2022-09-04T16:04:14.353Z,50.40
2022-09-04T16:09:24.231Z,51.17
2022-09-04T16:14:31.855Z,50.58
2022-09-04T16:19:43.256Z,48.73
2022-09-04T16:24:49.326Z,49.58
2022-09-04T16:29:57.303Z,48.19
2022-09-04T16:35:03.639Z,47.09
2022-09-04T16:40:23.019Z,47.44
2022-09-04T16:45:30.075Z,47.59
2022-09-04T16:50:42.119Z,47.75
2022-09-04T16:55:57.243Z,49.71
2022-09-04T17:01:15.444Z,52.35
2022-09-04T17:06:24.202Z,53.61
2022-09-04T17:11:38.021Z,53.99
2022-09-04T17:16:52.666Z,54.58
2022-09-04T17:29:00.617Z,55.82
2022-09-04T17:29:12.476Z,57.12
2022-09-04T17:38:05.081Z,58.37
2022-09-04T17:40:55.438Z,58.21
2022-09-04T17:45:04.487Z,59.56
2022-09-04T17:50:13.806Z,60.39
2022-09-04T17:55:16.642Z,61.69
2022-09-04T18:00:24.901Z,62.36
2022-09-04T18:05:33.599Z,64.20
2022-09-04T18:10:51.849Z,65.29
2022-09-04T18:16:07.428Z,66.17
2022-09-04T18:21:18.487Z,67.43
2022-09-04T18:26:40.013Z,68.37
2022-09-04T18:37:11.568Z,68.99
2022-09-04T18:37:43.999Z,70.16
2022-09-04T18:50:40.154Z,71.26
2022-09-04T18:50:52.397Z,72.92
2022-09-04T18:53:51.273Z,73.09
2022-09-04T18:59:03.167Z,73.07
2022-09-04T19:04:36.606Z,74.75
2022-09-04T19:09:58.754Z,74.56
2022-09-04T19:15:04.037Z,75.49
2022-09-04T19:20:15.130Z,76.98
2022-09-04T19:25:27.804Z,79.03
2022-09-04T19:30:36.426Z,78.08
2022-09-04T19:35:50.056Z,78.17
2022-09-04T19:45:55.378Z,79.36
2022-09-04T19:46:43.537Z,79.42
2022-09-04T19:53:35.190Z,86.21
2022-09-04T19:57:32.133Z,88.66
2022-09-04T20:02:45.091Z,86.77
2022-09-04T20:07:55.159Z,90.00
2022-09-04T20:13:06.157Z,91.45
2022-09-04T20:18:15.896Z,91.72
2022-09-04T20:23:33.969Z,92.02
2022-09-04T20:28:49.403Z,93.57
2022-09-04T20:33:57.912Z,93.57
2022-09-04T20:39:08.339Z,95.19
2022-09-04T20:44:19.846Z,96.25
2022-09-04T20:52:54.891Z,95.53
2022-09-04T20:55:33.755Z,94.92
2022-09-04T21:03:18.900Z,94.78
2022-09-04T21:06:25.958Z,97.74
2022-09-04T21:11:41.169Z,100.00
2022-09-04T21:17:00.618Z,100.00
2022-09-04T21:22:43.158Z,100.00
2022-09-04T21:28:07.318Z,100.00
2022-09-04T21:33:26.602Z,100.00
2022-09-04T21:38:57.199Z,100.00
2022-09-04T21:44:43.563Z,100.00
2022-09-04T21:50:25.204Z,100.00
2022-09-04T22:00:56.284Z,100.00
2022-09-04T22:02:45.025Z,100.00
2022-09-04T22:09:44.450Z,100.00
2022-09-04T22:13:43.725Z,100.00
2022-09-04T22:18:10.480Z,100.00
2022-09-04T22:23:38.491Z,100.00
2022-09-04T22:29:17.707Z,100.00
2022-09-04T22:35:00.077Z,100.00
2022-09-04T22:40:21.433Z,100.00
2022-09-04T22:46:09.275Z,100.00
2022-09-04T22:51:34.882Z,100.00
2022-09-04T22:56:52.247Z,100.00
2022-09-04T23:03:04.206Z,100.00
2022-09-04T23:13:43.836Z,100.00
2022-09-04T23:14:06.675Z,100.00
2022-09-04T23:26:31.075Z,100.00
2022-09-04T23:26:44.301Z,100.00
2022-09-04T23:31:25.409Z,100.00
2022-09-04T23:36:48.311Z,100.00
2022-09-04T23:42:04.706Z,100.00
2022-09-04T23:47:47.874Z,100.00
2022-09-04T23:53:04.844Z,100.00
2022-09-04T23:58:47.233Z,100.00
